sensor_id;sensor_type;location;lat;lon;timestamp;P1;durP1;ratioP1;P2;durP2;ratioP2
24273;SDS011;12392;42.678;23.380;2023-07-16T00:02:22;15.30;;;9.52;;
24273;SDS011;12392;42.678;23.380;2023-07-16T00:04:48;17.95;;;9.75;;
24273;SDS011;12392;42.678;23.380;2023-07-16T00:07:13;17.90;;;9.88;;
24273;SDS011;12392;42.678;23.380;2023-07-16T00:09:39;17.85;;;10.52;;
24273;SDS011;12392;42.678;23.380;2023-07-16T00:12:05;17.02;;;10.20;;
24273;SDS011;12392;42.678;23.380;2023-07-16T00:14:30;12.45;;;8.65;;
24273;SDS011;12392;42.678;23.380;2023-07-16T00:16:57;20.00;;;8.35;;
24273;SDS011;12392;42.678;23.380;2023-07-16T00:19:23;13.98;;;7.97;;
24273;SDS011;12392;42.678;23.380;2023-07-16T00:21:48;16.92;;;7.72;;
24273;SDS011;12392;42.678;23.380;2023-07-16T00:24:14;14.85;;;7.30;;
24273;SDS011;12392;42.678;23.380;2023-07-16T00:26:40;20.48;;;7.35;;
24273;SDS011;12392;42.678;23.380;2023-07-16T00:29:05;13.00;;;6.70;;
24273;SDS011;12392;42.678;23.380;2023-07-16T00:31:31;12.23;;;6.65;;
24273;SDS011;12392;42.678;23.380;2023-07-16T00:33:57;9.93;;;6.03;;
24273;SDS011;12392;42.678;23.380;2023-07-16T00:36:22;15.60;;;6.10;;
24273;SDS011;12392;42.678;23.380;2023-07-16T00:38:48;9.20;;;6.35;;
24273;SDS011;12392;42.678;23.380;2023-07-16T00:41:15;13.18;;;7.03;;
24273;SDS011;12392;42.678;23.380;2023-07-16T00:43:40;13.68;;;6.78;;
24273;SDS011;12392;42.678;23.380;2023-07-16T00:46:07;10.63;;;6.15;;
24273;SDS011;12392;42.678;23.380;2023-07-16T00:48:33;10.32;;;6.80;;
24273;SDS011;12392;42.678;23.380;2023-07-16T00:51:00;12.20;;;6.18;;
24273;SDS011;12392;42.678;23.380;2023-07-16T00:53:27;11.27;;;6.55;;
24273;SDS011;12392;42.678;23.380;2023-07-16T00:55:52;9.10;;;7.00;;
24273;SDS011;12392;42.678;23.380;2023-07-16T00:58:18;8.50;;;6.25;;
24273;SDS011;12392;42.678;23.380;2023-07-16T01:00:44;15.30;;;6.13;;
24273;SDS011;12392;42.678;23.380;2023-07-16T01:03:10;12.30;;;7.03;;
24273;SDS011;12392;42.678;23.380;2023-07-16T01:08:06;13.95;;;6.75;;
24273;SDS011;12392;42.678;23.380;2023-07-16T01:10:34;12.13;;;6.95;;
24273;SDS011;12392;42.678;23.380;2023-07-16T01:13:01;13.38;;;5.70;;
24273;SDS011;12392;42.678;23.380;2023-07-16T01:15:27;14.48;;;5.82;;
24273;SDS011;12392;42.678;23.380;2023-07-16T01:17:53;8.45;;;5.75;;
24273;SDS011;12392;42.678;23.380;2023-07-16T01:20:18;12.27;;;5.30;;
24273;SDS011;12392;42.678;23.380;2023-07-16T01:31:24;10.23;;;6.65;;
24273;SDS011;12392;42.678;23.380;2023-07-16T01:33:51;11.85;;;6.05;;
24273;SDS011;12392;42.678;23.380;2023-07-16T01:36:17;10.13;;;5.35;;
24273;SDS011;12392;42.678;23.380;2023-07-16T01:38:43;6.00;;;5.07;;
24273;SDS011;12392;42.678;23.380;2023-07-16T01:41:10;8.68;;;4.75;;
24273;SDS011;12392;42.678;23.380;2023-07-16T01:43:36;10.02;;;5.13;;
24273;SDS011;12392;42.678;23.380;2023-07-16T01:46:02;4.90;;;4.38;;
24273;SDS011;12392;42.678;23.380;2023-07-16T01:48:32;9.55;;;5.05;;
24273;SDS011;12392;42.678;23.380;2023-07-16T01:51:00;6.20;;;4.80;;
24273;SDS011;12392;42.678;23.380;2023-07-16T01:53:26;9.75;;;4.82;;
24273;SDS011;12392;42.678;23.380;2023-07-16T01:55:52;8.07;;;4.53;;
24273;SDS011;12392;42.678;23.380;2023-07-16T01:58:17;11.23;;;4.90;;
24273;SDS011;12392;42.678;23.380;2023-07-16T02:00:43;16.65;;;5.47;;
24273;SDS011;12392;42.678;23.380;2023-07-16T02:03:09;5.10;;;4.60;;
24273;SDS011;12392;42.678;23.380;2023-07-16T02:05:35;5.88;;;4.80;;
24273;SDS011;12392;42.678;23.380;2023-07-16T02:08:00;25.27;;;5.00;;
24273;SDS011;12392;42.678;23.380;2023-07-16T02:10:26;12.85;;;5.35;;
24273;SDS011;12392;42.678;23.380;2023-07-16T02:12:52;10.70;;;5.20;;
24273;SDS011;12392;42.678;23.380;2023-07-16T02:15:18;8.38;;;5.05;;
24273;SDS011;12392;42.678;23.380;2023-07-16T02:17:44;8.13;;;5.22;;
24273;SDS011;12392;42.678;23.380;2023-07-16T02:20:10;10.18;;;5.25;;
24273;SDS011;12392;42.678;23.380;2023-07-16T02:22:36;9.60;;;5.47;;
24273;SDS011;12392;42.678;23.380;2023-07-16T02:25:02;8.70;;;5.63;;
24273;SDS011;12392;42.678;23.380;2023-07-16T02:27:29;9.90;;;5.20;;
24273;SDS011;12392;42.678;23.380;2023-07-16T02:29:54;15.10;;;5.30;;
24273;SDS011;12392;42.678;23.380;2023-07-16T02:32:20;9.90;;;5.80;;
24273;SDS011;12392;42.678;23.380;2023-07-16T02:34:46;11.30;;;5.35;;
24273;SDS011;12392;42.678;23.380;2023-07-16T02:37:12;9.48;;;6.13;;
24273;SDS011;12392;42.678;23.380;2023-07-16T02:39:38;15.77;;;5.95;;
24273;SDS011;12392;42.678;23.380;2023-07-16T02:42:04;12.70;;;6.30;;
24273;SDS011;12392;42.678;23.380;2023-07-16T02:44:30;17.77;;;7.93;;
24273;SDS011;12392;42.678;23.380;2023-07-16T02:46:56;11.63;;;8.00;;
24273;SDS011;12392;42.678;23.380;2023-07-16T02:49:21;12.05;;;7.43;;
24273;SDS011;12392;42.678;23.380;2023-07-16T02:51:47;11.88;;;5.82;;
24273;SDS011;12392;42.678;23.380;2023-07-16T02:54:13;6.75;;;4.90;;
24273;SDS011;12392;42.678;23.380;2023-07-16T02:56:38;10.43;;;5.15;;
24273;SDS011;12392;42.678;23.380;2023-07-16T02:59:04;9.43;;;5.13;;
24273;SDS011;12392;42.678;23.380;2023-07-16T03:01:30;9.35;;;5.20;;
24273;SDS011;12392;42.678;23.380;2023-07-16T03:03:55;11.98;;;5.05;;
24273;SDS011;12392;42.678;23.380;2023-07-16T03:06:21;9.00;;;5.35;;
24273;SDS011;12392;42.678;23.380;2023-07-16T03:08:47;11.65;;;6.38;;
24273;SDS011;12392;42.678;23.380;2023-07-16T03:11:13;10.80;;;6.38;;
24273;SDS011;12392;42.678;23.380;2023-07-16T03:13:39;12.40;;;6.22;;
24273;SDS011;12392;42.678;23.380;2023-07-16T03:16:04;7.85;;;5.15;;
24273;SDS011;12392;42.678;23.380;2023-07-16T03:18:30;6.13;;;4.95;;
24273;SDS011;12392;42.678;23.380;2023-07-16T03:20:56;9.30;;;5.82;;
24273;SDS011;12392;42.678;23.380;2023-07-16T03:23:22;11.77;;;5.28;;
24273;SDS011;12392;42.678;23.380;2023-07-16T03:25:48;6.65;;;4.63;;
24273;SDS011;12392;42.678;23.380;2023-07-16T03:28:14;9.55;;;4.95;;
24273;SDS011;12392;42.678;23.380;2023-07-16T03:30:40;12.73;;;4.80;;
24273;SDS011;12392;42.678;23.380;2023-07-16T03:33:09;11.38;;;4.97;;
24273;SDS011;12392;42.678;23.380;2023-07-16T03:35:35;9.63;;;4.85;;
24273;SDS011;12392;42.678;23.380;2023-07-16T03:38:01;9.57;;;5.10;;
24273;SDS011;12392;42.678;23.380;2023-07-16T03:40:26;9.05;;;5.57;;
24273;SDS011;12392;42.678;23.380;2023-07-16T03:42:52;11.68;;;5.63;;
24273;SDS011;12392;42.678;23.380;2023-07-16T03:45:18;13.50;;;5.65;;
24273;SDS011;12392;42.678;23.380;2023-07-16T03:47:45;7.60;;;5.43;;
24273;SDS011;12392;42.678;23.380;2023-07-16T03:50:10;10.43;;;5.43;;
24273;SDS011;12392;42.678;23.380;2023-07-16T03:52:36;8.38;;;5.05;;
24273;SDS011;12392;42.678;23.380;2023-07-16T03:55:02;9.90;;;5.60;;
24273;SDS011;12392;42.678;23.380;2023-07-16T03:57:28;9.95;;;5.68;;
24273;SDS011;12392;42.678;23.380;2023-07-16T03:59:54;11.48;;;4.85;;
24273;SDS011;12392;42.678;23.380;2023-07-16T04:02:20;11.43;;;5.70;;
24273;SDS011;12392;42.678;23.380;2023-07-16T04:04:45;7.93;;;4.95;;
24273;SDS011;12392;42.678;23.380;2023-07-16T04:07:11;6.70;;;5.03;;
24273;SDS011;12392;42.678;23.380;2023-07-16T04:09:37;11.73;;;5.15;;
24273;SDS011;12392;42.678;23.380;2023-07-16T04:12:04;8.10;;;4.70;;
24273;SDS011;12392;42.678;23.380;2023-07-16T04:14:30;11.10;;;4.82;;
24273;SDS011;12392;42.678;23.380;2023-07-16T04:16:56;9.00;;;5.10;;
24273;SDS011;12392;42.678;23.380;2023-07-16T04:19:22;13.23;;;4.72;;
24273;SDS011;12392;42.678;23.380;2023-07-16T04:21:47;6.85;;;4.35;;
24273;SDS011;12392;42.678;23.380;2023-07-16T04:24:13;12.57;;;4.40;;
24273;SDS011;12392;42.678;23.380;2023-07-16T04:26:39;10.55;;;4.70;;
24273;SDS011;12392;42.678;23.380;2023-07-16T04:29:05;10.27;;;4.72;;
24273;SDS011;12392;42.678;23.380;2023-07-16T04:31:30;8.05;;;4.40;;
24273;SDS011;12392;42.678;23.380;2023-07-16T04:33:56;10.18;;;4.40;;
24273;SDS011;12392;42.678;23.380;2023-07-16T04:36:22;9.30;;;4.35;;
24273;SDS011;12392;42.678;23.380;2023-07-16T04:38:47;15.80;;;4.75;;
24273;SDS011;12392;42.678;23.380;2023-07-16T04:41:13;9.27;;;4.30;;
24273;SDS011;12392;42.678;23.380;2023-07-16T04:43:39;8.73;;;4.97;;
24273;SDS011;12392;42.678;23.380;2023-07-16T04:46:05;10.25;;;4.50;;
24273;SDS011;12392;42.678;23.380;2023-07-16T04:48:31;9.45;;;4.72;;
24273;SDS011;12392;42.678;23.380;2023-07-16T04:50:56;5.93;;;4.60;;
24273;SDS011;12392;42.678;23.380;2023-07-16T04:53:22;6.20;;;4.75;;
24273;SDS011;12392;42.678;23.380;2023-07-16T04:55:49;7.47;;;4.75;;
24273;SDS011;12392;42.678;23.380;2023-07-16T04:58:14;11.88;;;4.45;;
24273;SDS011;12392;42.678;23.380;2023-07-16T05:00:40;10.95;;;4.95;;
24273;SDS011;12392;42.678;23.380;2023-07-16T05:03:06;12.63;;;4.78;;
24273;SDS011;12392;42.678;23.380;2023-07-16T05:05:32;12.18;;;4.95;;
24273;SDS011;12392;42.678;23.380;2023-07-16T05:07:58;6.15;;;4.47;;
24273;SDS011;12392;42.678;23.380;2023-07-16T05:10:23;9.43;;;4.55;;
24273;SDS011;12392;42.678;23.380;2023-07-16T05:12:49;9.88;;;5.18;;
24273;SDS011;12392;42.678;23.380;2023-07-16T05:15:15;6.95;;;4.70;;
24273;SDS011;12392;42.678;23.380;2023-07-16T05:17:41;6.70;;;4.78;;
24273;SDS011;12392;42.678;23.380;2023-07-16T05:20:07;6.82;;;4.40;;
24273;SDS011;12392;42.678;23.380;2023-07-16T05:22:34;6.82;;;5.03;;
24273;SDS011;12392;42.678;23.380;2023-07-16T05:25:00;6.40;;;5.38;;
24273;SDS011;12392;42.678;23.380;2023-07-16T05:27:25;8.57;;;4.90;;
24273;SDS011;12392;42.678;23.380;2023-07-16T05:29:53;8.10;;;4.90;;
24273;SDS011;12392;42.678;23.380;2023-07-16T05:32:19;9.32;;;5.03;;
24273;SDS011;12392;42.678;23.380;2023-07-16T05:34:44;8.77;;;4.75;;
24273;SDS011;12392;42.678;23.380;2023-07-16T05:37:11;70.50;;;6.57;;
24273;SDS011;12392;42.678;23.380;2023-07-16T05:39:37;8.65;;;4.80;;
24273;SDS011;12392;42.678;23.380;2023-07-16T05:42:03;49.58;;;5.53;;
24273;SDS011;12392;42.678;23.380;2023-07-16T05:44:29;8.43;;;4.93;;
24273;SDS011;12392;42.678;23.380;2023-07-16T05:46:54;7.78;;;4.78;;
24273;SDS011;12392;42.678;23.380;2023-07-16T05:49:20;9.80;;;4.45;;
24273;SDS011;12392;42.678;23.380;2023-07-16T05:51:46;5.82;;;4.63;;
24273;SDS011;12392;42.678;23.380;2023-07-16T05:54:12;11.85;;;4.63;;
24273;SDS011;12392;42.678;23.380;2023-07-16T05:56:38;9.82;;;4.65;;
24273;SDS011;12392;42.678;23.380;2023-07-16T05:59:03;9.65;;;4.78;;
24273;SDS011;12392;42.678;23.380;2023-07-16T06:01:29;9.93;;;4.38;;
24273;SDS011;12392;42.678;23.380;2023-07-16T06:03:55;8.88;;;4.07;;
24273;SDS011;12392;42.678;23.380;2023-07-16T06:06:20;10.23;;;4.28;;
24273;SDS011;12392;42.678;23.380;2023-07-16T06:08:46;9.02;;;4.35;;
24273;SDS011;12392;42.678;23.380;2023-07-16T06:11:13;7.78;;;4.55;;
24273;SDS011;12392;42.678;23.380;2023-07-16T06:13:39;7.00;;;4.57;;
24273;SDS011;12392;42.678;23.380;2023-07-16T06:16:04;18.23;;;4.93;;
24273;SDS011;12392;42.678;23.380;2023-07-16T06:18:30;5.40;;;4.15;;
24273;SDS011;12392;42.678;23.380;2023-07-16T06:20:56;8.35;;;4.20;;
24273;SDS011;12392;42.678;23.380;2023-07-16T06:23:22;11.57;;;4.53;;
24273;SDS011;12392;42.678;23.380;2023-07-16T06:25:47;11.20;;;4.32;;
24273;SDS011;12392;42.678;23.380;2023-07-16T06:28:14;5.95;;;4.07;;
24273;SDS011;12392;42.678;23.380;2023-07-16T06:30:40;5.75;;;4.05;;
24273;SDS011;12392;42.678;23.380;2023-07-16T06:33:06;10.40;;;4.63;;
24273;SDS011;12392;42.678;23.380;2023-07-16T06:35:32;9.88;;;4.15;;
24273;SDS011;12392;42.678;23.380;2023-07-16T06:37:58;6.82;;;4.25;;
24273;SDS011;12392;42.678;23.380;2023-07-16T06:40:24;7.90;;;4.18;;
24273;SDS011;12392;42.678;23.380;2023-07-16T06:42:50;9.55;;;4.60;;
24273;SDS011;12392;42.678;23.380;2023-07-16T06:45:17;57.83;;;5.57;;
24273;SDS011;12392;42.678;23.380;2023-07-16T06:47:43;7.22;;;4.00;;
24273;SDS011;12392;42.678;23.380;2023-07-16T06:50:08;12.48;;;4.03;;
24273;SDS011;12392;42.678;23.380;2023-07-16T06:52:34;8.88;;;4.57;;
24273;SDS011;12392;42.678;23.380;2023-07-16T06:55:00;7.70;;;4.10;;
24273;SDS011;12392;42.678;23.380;2023-07-16T06:57:26;6.60;;;4.10;;
24273;SDS011;12392;42.678;23.380;2023-07-16T06:59:51;8.18;;;4.03;;
24273;SDS011;12392;42.678;23.380;2023-07-16T07:02:17;8.55;;;4.07;;
24273;SDS011;12392;42.678;23.380;2023-07-16T07:04:43;5.93;;;3.85;;
24273;SDS011;12392;42.678;23.380;2023-07-16T07:07:09;6.18;;;3.75;;
24273;SDS011;12392;42.678;23.380;2023-07-16T07:09:34;7.55;;;3.90;;
24273;SDS011;12392;42.678;23.380;2023-07-16T07:12:00;6.93;;;4.05;;
24273;SDS011;12392;42.678;23.380;2023-07-16T07:14:26;5.13;;;4.40;;
24273;SDS011;12392;42.678;23.380;2023-07-16T07:16:52;93.80;;;7.70;;
24273;SDS011;12392;42.678;23.380;2023-07-16T07:19:17;10.95;;;4.18;;
24273;SDS011;12392;42.678;23.380;2023-07-16T07:21:43;7.00;;;4.15;;
24273;SDS011;12392;42.678;23.380;2023-07-16T07:24:09;8.00;;;4.10;;
24273;SDS011;12392;42.678;23.380;2023-07-16T07:26:34;8.80;;;4.40;;
24273;SDS011;12392;42.678;23.380;2023-07-16T07:29:00;6.30;;;4.03;;
24273;SDS011;12392;42.678;23.380;2023-07-16T07:31:26;8.23;;;4.35;;
24273;SDS011;12392;42.678;23.380;2023-07-16T07:33:51;6.13;;;4.10;;
24273;SDS011;12392;42.678;23.380;2023-07-16T07:36:18;5.28;;;4.38;;
24273;SDS011;12392;42.678;23.380;2023-07-16T07:38:44;71.20;;;6.15;;
24273;SDS011;12392;42.678;23.380;2023-07-16T07:41:10;50.78;;;5.57;;
24273;SDS011;12392;42.678;23.380;2023-07-16T07:43:36;7.90;;;4.85;;
24273;SDS011;12392;42.678;23.380;2023-07-16T07:46:01;7.07;;;4.40;;
24273;SDS011;12392;42.678;23.380;2023-07-16T07:48:27;7.47;;;5.03;;
24273;SDS011;12392;42.678;23.380;2023-07-16T07:50:53;6.53;;;4.47;;
24273;SDS011;12392;42.678;23.380;2023-07-16T07:53:18;7.35;;;5.20;;
24273;SDS011;12392;42.678;23.380;2023-07-16T07:55:44;6.32;;;4.40;;
24273;SDS011;12392;42.678;23.380;2023-07-16T07:58:11;7.22;;;4.60;;
24273;SDS011;12392;42.678;23.380;2023-07-16T08:00:37;12.05;;;4.88;;
24273;SDS011;12392;42.678;23.380;2023-07-16T08:03:03;6.05;;;4.80;;
24273;SDS011;12392;42.678;23.380;2023-07-16T08:05:28;6.45;;;4.70;;
24273;SDS011;12392;42.678;23.380;2023-07-16T08:07:54;8.60;;;5.07;;
24273;SDS011;12392;42.678;23.380;2023-07-16T08:10:21;8.15;;;4.50;;
24273;SDS011;12392;42.678;23.380;2023-07-16T08:12:47;7.07;;;5.38;;
24273;SDS011;12392;42.678;23.380;2023-07-16T08:15:13;6.88;;;5.03;;
24273;SDS011;12392;42.678;23.380;2023-07-16T08:17:43;11.65;;;5.90;;
24273;SDS011;12392;42.678;23.380;2023-07-16T08:20:10;11.82;;;6.22;;
24273;SDS011;12392;42.678;23.380;2023-07-16T08:22:37;7.28;;;5.43;;
24273;SDS011;12392;42.678;23.380;2023-07-16T08:25:02;9.60;;;4.82;;
24273;SDS011;12392;42.678;23.380;2023-07-16T08:27:29;8.85;;;5.05;;
24273;SDS011;12392;42.678;23.380;2023-07-16T08:29:55;49.50;;;6.97;;
24273;SDS011;12392;42.678;23.380;2023-07-16T08:32:20;9.45;;;5.95;;
24273;SDS011;12392;42.678;23.380;2023-07-16T08:34:46;8.13;;;6.22;;
24273;SDS011;12392;42.678;23.380;2023-07-16T08:37:12;7.07;;;5.47;;
24273;SDS011;12392;42.678;23.380;2023-07-16T08:39:39;11.27;;;5.88;;
24273;SDS011;12392;42.678;23.380;2023-07-16T08:42:04;7.93;;;5.93;;
24273;SDS011;12392;42.678;23.380;2023-07-16T08:44:31;11.68;;;5.95;;
24273;SDS011;12392;42.678;23.380;2023-07-16T08:46:56;8.98;;;6.03;;
24273;SDS011;12392;42.678;23.380;2023-07-16T08:49:22;9.43;;;6.13;;
24273;SDS011;12392;42.678;23.380;2023-07-16T08:51:48;13.40;;;6.07;;
24273;SDS011;12392;42.678;23.380;2023-07-16T08:54:15;8.48;;;6.60;;
24273;SDS011;12392;42.678;23.380;2023-07-16T08:56:43;10.65;;;6.30;;
24273;SDS011;12392;42.678;23.380;2023-07-16T08:59:09;13.73;;;6.25;;
24273;SDS011;12392;42.678;23.380;2023-07-16T09:01:36;7.63;;;6.38;;
24273;SDS011;12392;42.678;23.380;2023-07-16T09:04:02;7.20;;;6.13;;
24273;SDS011;12392;42.678;23.380;2023-07-16T09:06:28;8.98;;;6.65;;
24273;SDS011;12392;42.678;23.380;2023-07-16T09:08:53;11.30;;;6.80;;
24273;SDS011;12392;42.678;23.380;2023-07-16T09:11:20;9.65;;;7.13;;
24273;SDS011;12392;42.678;23.380;2023-07-16T09:13:47;9.02;;;7.15;;
24273;SDS011;12392;42.678;23.380;2023-07-16T09:16:13;12.25;;;7.07;;
24273;SDS011;12392;42.678;23.380;2023-07-16T09:18:41;11.35;;;7.47;;
24273;SDS011;12392;42.678;23.380;2023-07-16T09:21:07;17.85;;;8.95;;
24273;SDS011;12392;42.678;23.380;2023-07-16T09:23:33;13.10;;;8.73;;
24273;SDS011;12392;42.678;23.380;2023-07-16T09:25:59;12.95;;;7.85;;
24273;SDS011;12392;42.678;23.380;2023-07-16T09:28:25;13.55;;;7.43;;
24273;SDS011;12392;42.678;23.380;2023-07-16T09:30:51;11.25;;;7.10;;
24273;SDS011;12392;42.678;23.380;2023-07-16T09:33:21;16.02;;;7.65;;
24273;SDS011;12392;42.678;23.380;2023-07-16T09:35:49;10.50;;;6.63;;
24273;SDS011;12392;42.678;23.380;2023-07-16T09:38:16;8.45;;;7.28;;
24273;SDS011;12392;42.678;23.380;2023-07-16T09:40:42;12.18;;;6.82;;
24273;SDS011;12392;42.678;23.380;2023-07-16T09:43:08;9.00;;;7.00;;
24273;SDS011;12392;42.678;23.380;2023-07-16T09:45:34;14.98;;;7.93;;
24273;SDS011;12392;42.678;23.380;2023-07-16T09:48:00;11.57;;;7.53;;
24273;SDS011;12392;42.678;23.380;2023-07-16T09:50:28;7.95;;;7.10;;
24273;SDS011;12392;42.678;23.380;2023-07-16T09:52:55;14.93;;;7.75;;
24273;SDS011;12392;42.678;23.380;2023-07-16T09:55:22;13.85;;;7.65;;
24273;SDS011;12392;42.678;23.380;2023-07-16T09:57:48;10.57;;;7.70;;
24273;SDS011;12392;42.678;23.380;2023-07-16T10:00:15;11.63;;;7.97;;
24273;SDS011;12392;42.678;23.380;2023-07-16T10:02:43;12.25;;;8.30;;
24273;SDS011;12392;42.678;23.380;2023-07-16T10:05:13;11.52;;;7.65;;
24273;SDS011;12392;42.678;23.380;2023-07-16T10:07:39;12.90;;;8.00;;
24273;SDS011;12392;42.678;23.380;2023-07-16T10:10:09;10.43;;;8.18;;
24273;SDS011;12392;42.678;23.380;2023-07-16T10:12:36;12.18;;;7.75;;
24273;SDS011;12392;42.678;23.380;2023-07-16T10:15:02;14.85;;;7.88;;
24273;SDS011;12392;42.678;23.380;2023-07-16T10:17:30;14.48;;;8.50;;
24273;SDS011;12392;42.678;23.380;2023-07-16T10:19:57;11.38;;;8.85;;
24273;SDS011;12392;42.678;23.380;2023-07-16T10:25:02;14.13;;;8.20;;
24273;SDS011;12392;42.678;23.380;2023-07-16T10:27:33;9.38;;;7.90;;
24273;SDS011;12392;42.678;23.380;2023-07-16T10:30:00;16.92;;;8.77;;
24273;SDS011;12392;42.678;23.380;2023-07-16T10:32:30;14.27;;;8.55;;
24273;SDS011;12392;42.678;23.380;2023-07-16T10:34:57;12.48;;;8.90;;
24273;SDS011;12392;42.678;23.380;2023-07-16T10:37:23;14.13;;;9.05;;
24273;SDS011;12392;42.678;23.380;2023-07-16T10:39:50;15.63;;;8.63;;
24273;SDS011;12392;42.678;23.380;2023-07-16T10:42:17;13.80;;;8.70;;
24273;SDS011;12392;42.678;23.380;2023-07-16T10:44:44;14.73;;;8.82;;
24273;SDS011;12392;42.678;23.380;2023-07-16T10:50:06;12.98;;;8.32;;
24273;SDS011;12392;42.678;23.380;2023-07-16T10:52:33;16.25;;;9.00;;
24273;SDS011;12392;42.678;23.380;2023-07-16T10:55:00;12.90;;;9.50;;
24273;SDS011;12392;42.678;23.380;2023-07-16T10:57:26;15.13;;;9.55;;
24273;SDS011;12392;42.678;23.380;2023-07-16T10:59:56;15.80;;;9.65;;
24273;SDS011;12392;42.678;23.380;2023-07-16T11:02:23;12.73;;;8.85;;
24273;SDS011;12392;42.678;23.380;2023-07-16T11:04:50;16.10;;;9.45;;
24273;SDS011;12392;42.678;23.380;2023-07-16T11:07:18;16.20;;;9.02;;
24273;SDS011;12392;42.678;23.380;2023-07-16T11:09:45;14.15;;;8.95;;
24273;SDS011;12392;42.678;23.380;2023-07-16T11:12:13;14.07;;;9.48;;
24273;SDS011;12392;42.678;23.380;2023-07-16T11:14:52;15.98;;;9.38;;
24273;SDS011;12392;42.678;23.380;2023-07-16T11:17:19;12.07;;;8.60;;
24273;SDS011;12392;42.678;23.380;2023-07-16T11:19:46;12.35;;;8.88;;
24273;SDS011;12392;42.678;23.380;2023-07-16T11:22:13;14.30;;;9.43;;
24273;SDS011;12392;42.678;23.380;2023-07-16T11:24:43;13.80;;;9.40;;
24273;SDS011;12392;42.678;23.380;2023-07-16T11:27:16;20.80;;;9.65;;
24273;SDS011;12392;42.678;23.380;2023-07-16T11:29:47;17.75;;;9.45;;
24273;SDS011;12392;42.678;23.380;2023-07-16T11:32:13;13.07;;;8.77;;
24273;SDS011;12392;42.678;23.380;2023-07-16T11:34:52;14.73;;;9.63;;
24273;SDS011;12392;42.678;23.380;2023-07-16T11:37:21;23.85;;;9.73;;
24273;SDS011;12392;42.678;23.380;2023-07-16T11:39:47;16.38;;;9.77;;
24273;SDS011;12392;42.678;23.380;2023-07-16T11:42:14;15.98;;;10.38;;
24273;SDS011;12392;42.678;23.380;2023-07-16T11:44:43;15.82;;;9.85;;
24273;SDS011;12392;42.678;23.380;2023-07-16T11:47:14;21.50;;;9.18;;
24273;SDS011;12392;42.678;23.380;2023-07-16T11:49:39;17.17;;;9.38;;
24273;SDS011;12392;42.678;23.380;2023-07-16T11:52:05;15.02;;;8.90;;
24273;SDS011;12392;42.678;23.380;2023-07-16T11:54:31;14.93;;;9.10;;
24273;SDS011;12392;42.678;23.380;2023-07-16T11:56:57;15.18;;;9.85;;
24273;SDS011;12392;42.678;23.380;2023-07-16T11:59:22;21.70;;;9.48;;
24273;SDS011;12392;42.678;23.380;2023-07-16T12:01:48;15.57;;;9.63;;
24273;SDS011;12392;42.678;23.380;2023-07-16T12:04:15;16.63;;;9.60;;
24273;SDS011;12392;42.678;23.380;2023-07-16T12:06:42;17.75;;;9.63;;
24273;SDS011;12392;42.678;23.380;2023-07-16T12:09:08;12.65;;;9.07;;
24273;SDS011;12392;42.678;23.380;2023-07-16T12:11:33;13.50;;;9.15;;
24273;SDS011;12392;42.678;23.380;2023-07-16T12:13:59;15.88;;;9.13;;
24273;SDS011;12392;42.678;23.380;2023-07-16T12:16:25;13.93;;;9.02;;
24273;SDS011;12392;42.678;23.380;2023-07-16T12:18:50;17.17;;;8.80;;
24273;SDS011;12392;42.678;23.380;2023-07-16T12:21:16;15.38;;;8.93;;
24273;SDS011;12392;42.678;23.380;2023-07-16T12:23:41;14.05;;;9.10;;
24273;SDS011;12392;42.678;23.380;2023-07-16T12:26:07;12.02;;;8.55;;
24273;SDS011;12392;42.678;23.380;2023-07-16T12:28:33;15.73;;;8.60;;
24273;SDS011;12392;42.678;23.380;2023-07-16T12:30:59;14.95;;;8.95;;
24273;SDS011;12392;42.678;23.380;2023-07-16T12:33:25;17.33;;;8.98;;
24273;SDS011;12392;42.678;23.380;2023-07-16T12:35:50;17.80;;;9.07;;
24273;SDS011;12392;42.678;23.380;2023-07-16T12:38:16;12.07;;;8.77;;
24273;SDS011;12392;42.678;23.380;2023-07-16T12:40:42;14.95;;;9.10;;
24273;SDS011;12392;42.678;23.380;2023-07-16T12:43:08;10.80;;;8.73;;
24273;SDS011;12392;42.678;23.380;2023-07-16T12:45:33;16.83;;;9.25;;
24273;SDS011;12392;42.678;23.380;2023-07-16T12:47:59;14.20;;;9.35;;
24273;SDS011;12392;42.678;23.380;2023-07-16T12:50:25;13.70;;;9.52;;
24273;SDS011;12392;42.678;23.380;2023-07-16T12:52:52;18.10;;;8.68;;
24273;SDS011;12392;42.678;23.380;2023-07-16T12:55:18;11.05;;;7.97;;
24273;SDS011;12392;42.678;23.380;2023-07-16T12:57:44;11.88;;;8.48;;
24273;SDS011;12392;42.678;23.380;2023-07-16T13:00:10;12.70;;;8.07;;
24273;SDS011;12392;42.678;23.380;2023-07-16T13:02:36;13.60;;;8.60;;
24273;SDS011;12392;42.678;23.380;2023-07-16T13:05:02;13.43;;;7.97;;
24273;SDS011;12392;42.678;23.380;2023-07-16T13:07:28;13.50;;;8.65;;
24273;SDS011;12392;42.678;23.380;2023-07-16T13:09:55;12.15;;;8.50;;
24273;SDS011;12392;42.678;23.380;2023-07-16T13:12:21;12.90;;;8.68;;
24273;SDS011;12392;42.678;23.380;2023-07-16T13:14:46;13.88;;;8.52;;
24273;SDS011;12392;42.678;23.380;2023-07-16T13:17:12;12.15;;;8.80;;
24273;SDS011;12392;42.678;23.380;2023-07-16T13:19:40;10.02;;;8.15;;
24273;SDS011;12392;42.678;23.380;2023-07-16T13:22:05;12.10;;;8.25;;
24273;SDS011;12392;42.678;23.380;2023-07-16T13:24:31;16.60;;;8.27;;
24273;SDS011;12392;42.678;23.380;2023-07-16T13:26:57;12.15;;;8.30;;
24273;SDS011;12392;42.678;23.380;2023-07-16T13:29:22;12.32;;;8.35;;
24273;SDS011;12392;42.678;23.380;2023-07-16T13:31:48;19.80;;;9.00;;
24273;SDS011;12392;42.678;23.380;2023-07-16T13:34:14;10.43;;;8.80;;
24273;SDS011;12392;42.678;23.380;2023-07-16T13:36:40;15.45;;;8.65;;
24273;SDS011;12392;42.678;23.380;2023-07-16T13:39:05;10.20;;;8.10;;
24273;SDS011;12392;42.678;23.380;2023-07-16T13:41:31;13.85;;;8.13;;
24273;SDS011;12392;42.678;23.380;2023-07-16T13:43:57;14.93;;;8.40;;
24273;SDS011;12392;42.678;23.380;2023-07-16T13:46:23;13.70;;;8.10;;
24273;SDS011;12392;42.678;23.380;2023-07-16T13:48:48;16.17;;;9.40;;
24273;SDS011;12392;42.678;23.380;2023-07-16T13:51:14;14.38;;;8.75;;
24273;SDS011;12392;42.678;23.380;2023-07-16T13:53:40;16.17;;;9.23;;
24273;SDS011;12392;42.678;23.380;2023-07-16T13:56:06;11.52;;;8.27;;
24273;SDS011;12392;42.678;23.380;2023-07-16T13:58:33;11.73;;;8.65;;
24273;SDS011;12392;42.678;23.380;2023-07-16T14:00:59;12.75;;;7.93;;
24273;SDS011;12392;42.678;23.380;2023-07-16T14:03:24;12.13;;;8.20;;
24273;SDS011;12392;42.678;23.380;2023-07-16T14:05:51;12.93;;;7.97;;
24273;SDS011;12392;42.678;23.380;2023-07-16T14:08:17;10.82;;;7.55;;
24273;SDS011;12392;42.678;23.380;2023-07-16T14:10:42;12.25;;;8.15;;
24273;SDS011;12392;42.678;23.380;2023-07-16T14:13:08;13.73;;;7.60;;
24273;SDS011;12392;42.678;23.380;2023-07-16T14:15:34;10.02;;;7.95;;
24273;SDS011;12392;42.678;23.380;2023-07-16T14:18:00;10.90;;;8.00;;
24273;SDS011;12392;42.678;23.380;2023-07-16T14:20:26;10.77;;;7.85;;
24273;SDS011;12392;42.678;23.380;2023-07-16T14:22:51;10.05;;;7.75;;
24273;SDS011;12392;42.678;23.380;2023-07-16T14:25:17;15.30;;;7.63;;
24273;SDS011;12392;42.678;23.380;2023-07-16T14:27:43;15.73;;;7.85;;
24273;SDS011;12392;42.678;23.380;2023-07-16T14:30:09;11.50;;;8.02;;
24273;SDS011;12392;42.678;23.380;2023-07-16T14:32:35;10.95;;;7.57;;
24273;SDS011;12392;42.678;23.380;2023-07-16T14:35:02;10.10;;;8.23;;
24273;SDS011;12392;42.678;23.380;2023-07-16T14:37:28;13.45;;;8.13;;